Time;durP1;ratioP1;P1;durP2;ratioP2;P2;SDS_P1;SDS_P2;PMS_P1;PMS_P2;Temp;Humidity;BMP_temperature;BMP_pressure;BME280_temperature;BME280_humidity;BME280_pressure;Samples;Min_cycle;Max_cycle;Signal;HPM_P1;HPM_P2
2021/11/28 00:01:01;;;;;;;97.35;45.25;;;;;;;-0.61;94.97;98558.84;1768218;81;27309;-74
2021/11/28 00:03:28;;;;;;;98.58;42.90;;;;;;;-0.64;95.01;98560.17;1769781;80;25747;-74
2021/11/28 00:06:04;;;;;;;92.67;43.42;;;;;;;-0.66;95.12;98553.57;1769498;81;25634;-74
2021/11/28 00:11:17;;;;;;;100.35;43.90;;;;;;;-0.73;95.07;98549.91;1769798;81;25614;-74
2021/11/28 00:13:35;;;;;;;;;;;;;;;-0.76;94.98;98559.20;1770214;80;27369;-73
2021/11/28 00:16:02;;;;;;;90.38;41.48;;;;;;;-0.78;95.08;98564.54;1768480;81;25742;-75
2021/11/28 00:18:30;;;;;;;86.55;39.20;;;;;;;-0.80;95.26;98575.44;1769752;81;25554;-75
2021/11/28 00:20:56;;;;;;;84.90;39.85;;;;;;;-0.82;95.39;98580.74;1769106;80;26591;-75
2021/11/28 00:23:23;;;;;;;89.55;41.45;;;;;;;-0.81;95.52;98579.69;1746012;80;25626;-73
2021/11/28 00:25:50;;;;;;;80.97;38.98;;;;;;;-0.83;95.55;98580.50;1769946;80;27880;-72
2021/11/28 00:28:17;;;;;;;95.15;42.35;;;;;;;-0.84;95.66;98582.34;1772710;80;25791;-72
2021/11/28 00:30:44;;;;;;;87.15;40.88;;;;;;;-0.83;95.57;98589.80;1772898;80;25138;-73
2021/11/28 00:33:10;;;;;;;91.92;41.90;;;;;;;-0.83;95.74;98603.07;1773206;80;25974;-73
2021/11/28 00:35:37;;;;;;;93.20;42.55;;;;;;;-0.81;95.82;98600.92;1772855;80;25373;-73
2021/11/28 00:38:04;;;;;;;92.85;43.87;;;;;;;-0.79;95.97;98604.88;1773579;80;27314;-72
2021/11/28 00:40:30;;;;;;;98.12;45.63;;;;;;;-0.79;95.99;98602.22;1773112;80;25226;-72
2021/11/28 00:42:58;;;;;;;90.70;42.20;;;;;;;-0.78;96.10;98595.86;1772683;79;25333;-73
2021/11/28 00:45:26;;;;;;;83.78;40.38;;;;;;;-0.75;96.15;98607.77;1773236;80;25917;-73
2021/11/28 00:47:53;;;;;;;91.95;42.67;;;;;;;-0.73;96.22;98605.66;1772447;81;25860;-73
2021/11/28 00:52:50;;;;;;;94.87;42.08;;;;;;;-0.68;96.35;98591.53;1771756;80;25511;-73
2021/11/28 00:55:17;;;;;;;90.15;41.35;;;;;;;-0.66;96.39;98596.06;1770253;81;25712;-73
2021/11/28 00:57:43;;;;;;;84.25;40.05;;;;;;;-0.63;96.49;98606.11;1769352;80;25949;-73
2021/11/28 01:00:11;;;;;;;95.20;43.45;;;;;;;-0.60;96.67;98610.33;1771084;80;25562;-73
2021/11/28 01:02:38;;;;;;;91.90;41.58;;;;;;;-0.54;96.78;98620.41;1779936;79;27434;-73
2021/11/28 01:05:07;;;;;;;90.32;42.45;;;;;;;-0.52;96.89;98620.91;1813535;79;25600;-73
2021/11/28 01:07:38;;;;;;;83.80;40.60;;;;;;;-0.47;96.88;98619.55;1814115;79;25612;-73
2021/11/28 01:10:03;;;;;;;88.15;42.05;;;;;;;-0.43;96.95;98609.94;1813831;78;25920;-74
2021/11/28 01:12:30;;;;;;;85.17;40.10;;;;;;;-0.40;97.02;98612.05;1813760;79;26123;-73
2021/11/28 01:14:56;;;;;;;85.50;42.53;;;;;;;-0.36;97.09;98604.31;1813830;79;27307;-73
2021/11/28 01:17:23;;;;;;;85.45;39.50;;;;;;;-0.32;97.06;98604.03;1813817;79;25757;-73
2021/11/28 01:19:50;;;;;;;86.30;41.10;;;;;;;-0.28;97.09;98598.95;1813510;79;25550;-74
2021/11/28 01:22:16;;;;;;;89.20;40.63;;;;;;;-0.25;97.15;98599.73;1790941;79;26761;-74
2021/11/28 01:24:43;;;;;;;96.63;42.70;;;;;;;-0.20;97.24;98599.69;1813811;79;25597;-74
2021/11/28 01:27:14;;;;;;;90.95;42.15;;;;;;;-0.17;97.25;98585.03;1813611;79;27309;-73
2021/11/28 01:29:42;;;;;;;85.72;40.85;;;;;;;-0.15;97.22;98582.88;1813729;78;25718;-73
2021/11/28 01:32:11;;;;;;;81.67;40.20;;;;;;;-0.14;97.05;98577.29;1813900;78;25483;-73
2021/11/28 01:34:37;;;;;;;84.67;40.75;;;;;;;-0.11;96.95;98583.37;1813521;79;25917;-74
2021/11/28 01:37:05;;;;;;;79.80;40.63;;;;;;;-0.09;96.98;98593.73;1813933;78;25425;-74
2021/11/28 01:39:33;;;;;;;85.22;41.05;;;;;;;-0.08;96.93;98579.38;1813767;78;27564;-74
2021/11/28 01:41:59;;;;;;;83.90;40.60;;;;;;;-0.05;97.05;98576.95;1813549;79;25636;-74
2021/11/28 01:44:26;;;;;;;87.00;41.70;;;;;;;-0.02;97.13;98575.07;1813934;79;25650;-73
2021/11/28 01:46:53;;;;;;;80.90;41.58;;;;;;;0.00;97.13;98568.15;1791036;79;25797;-72
2021/11/28 01:49:21;;;;;;;84.05;39.10;;;;;;;0.02;97.17;98573.97;1813607;79;25240;-73
2021/11/28 01:51:50;;;;;;;87.60;42.15;;;;;;;0.06;97.24;98575.53;1813749;79;27300;-73
2021/11/28 01:54:18;;;;;;;93.97;42.13;;;;;;;0.07;97.23;98583.73;1814022;78;25597;-73
2021/11/28 01:56:48;;;;;;;83.85;41.40;;;;;;;0.08;97.04;98580.80;1813510;78;25475;-72
2021/11/28 01:59:16;;;;;;;81.12;40.52;;;;;;;0.09;97.06;98574.97;1782381;80;25905;-72
2021/11/28 02:01:43;;;;;;;84.83;41.30;;;;;;;0.10;96.92;98569.89;1777810;80;25637;-73
2021/11/28 02:04:14;;;;;;;82.47;40.52;;;;;;;0.10;96.95;98569.89;1774201;80;27369;-73
2021/11/28 02:06:39;;;;;;;88.62;41.23;;;;;;;0.12;97.12;98580.52;1769746;80;25531;-73
2021/11/28 02:09:05;;;;;;;88.37;42.48;;;;;;;0.14;97.09;98585.55;1769774;80;25468;-73
2021/11/28 02:11:32;;;;;;;88.25;41.92;;;;;;;0.13;96.93;98589.27;1770862;80;25921;-72
2021/11/28 02:13:59;;;;;;;83.85;40.90;;;;;;;0.10;96.75;98584.00;1769819;81;25668;-73
2021/11/28 02:16:26;;;;;;;86.75;41.63;;;;;;;0.08;96.73;98584.80;1770086;80;27991;-73
2021/11/28 02:18:52;;;;;;;87.40;42.95;;;;;;;0.08;96.84;98588.00;1769439;80;25597;-73
2021/11/28 02:21:19;;;;;;;86.17;41.40;;;;;;;0.06;96.82;98582.95;1770235;80;25460;-73
2021/11/28 02:23:46;;;;;;;94.58;43.60;;;;;;;0.07;96.96;98585.88;1769828;80;26525;-73
2021/11/28 02:26:15;;;;;;;86.63;43.00;;;;;;;0.07;96.90;98577.09;1769715;80;25542;-73
2021/11/28 02:28:45;;;;;;;88.47;41.58;;;;;;;0.07;97.01;98577.91;1770010;80;27319;-73
2021/11/28 02:31:14;;;;;;;94.00;42.80;;;;;;;0.07;96.96;98561.14;1770066;80;25448;-73
2021/11/28 02:33:40;;;;;;;85.57;41.98;;;;;;;0.08;97.21;98568.84;1769586;80;25646;-73
2021/11/28 02:36:07;;;;;;;90.32;42.85;;;;;;;0.10;97.27;98562.73;1769973;80;25918;-74
2021/11/28 02:38:34;;;;;;;91.82;43.25;;;;;;;0.14;97.45;98565.61;1769885;80;25386;-74
2021/11/28 02:41:01;;;;;;;90.45;43.98;;;;;;;0.15;97.43;98558.69;1747208;81;27495;-73
2021/11/28 02:43:29;;;;;;;93.37;43.68;;;;;;;0.21;97.60;98565.28;1769774;80;25654;-73
2021/11/28 02:46:02;;;;;;;94.05;44.10;;;;;;;0.21;97.41;98562.62;1769713;80;25413;-73
2021/11/28 02:48:29;;;;;;;94.52;45.03;;;;;;;0.24;97.63;98559.37;1769604;80;25923;-73
2021/11/28 02:50:59;;;;;;;89.92;43.02;;;;;;;0.26;97.64;98567.34;1770150;80;25374;-73
2021/11/28 02:53:26;;;;;;;95.47;45.65;;;;;;;0.28;97.57;98564.39;1769971;80;27329;-73
2021/11/28 02:55:56;;;;;;;94.30;45.23;;;;;;;0.31;97.46;98566.50;1769331;80;25740;-73
2021/11/28 02:58:24;;;;;;;82.65;42.75;;;;;;;0.30;97.26;98563.02;1770058;80;25566;-73
2021/11/28 03:01:08;;;;;;;91.85;45.15;;;;;;;0.29;97.22;98562.78;1773981;80;25920;-73
2021/11/28 03:03:34;;;;;;;97.22;44.88;;;;;;;0.31;97.28;98568.61;1774233;80;25733;-73
2021/11/28 03:06:01;;;;;;;94.40;45.30;;;;;;;0.31;97.31;98559.30;1774817;80;27368;-73
2021/11/28 03:08:28;;;;;;;97.75;44.50;;;;;;;0.33;97.44;98575.77;1747340;80;25767;-73
2021/11/28 03:10:56;;;;;;;91.22;43.83;;;;;;;0.32;97.35;98567.55;1773116;80;25566;-73
2021/11/28 03:13:36;;;;;;;96.10;44.90;;;;;;;0.33;97.25;98572.31;1774996;80;25989;-75
2021/11/28 03:16:10;;;;;;;95.83;44.75;;;;;;;0.32;97.17;98570.20;1775114;80;25658;-73
2021/11/28 03:18:37;;;;;;;92.08;44.30;;;;;;;0.33;97.24;98570.44;1777017;77;27310;-71
2021/11/28 03:21:08;;;;;;;92.17;43.60;;;;;;;0.36;97.36;98577.08;1745651;80;25428;-70
2021/11/28 03:23:37;;;;;;;88.40;42.93;;;;;;;0.36;97.36;98573.88;1777990;78;25202;-71
2021/11/28 03:26:30;;;;;;;93.45;46.10;;;;;;;0.37;97.44;98573.32;1777854;78;25946;-72
2021/11/28 03:29:01;;;;;;;87.40;43.10;;;;;;;0.38;97.27;98572.80;1778087;80;25206;-72
2021/11/28 03:31:32;;;;;;;95.07;43.90;;;;;;;0.38;97.29;98583.45;1776820;80;27340;-72
2021/11/28 03:33:59;;;;;;;91.85;45.58;;;;;;;0.39;97.31;98571.71;1777076;80;25412;-72
2021/11/28 03:36:29;;;;;;;91.30;45.00;;;;;;;0.40;97.41;98578.63;1777370;80;25242;-72
2021/11/28 03:38:57;;;;;;;90.17;43.98;;;;;;;0.39;97.24;98585.02;1777059;80;35212;-72
2021/11/28 03:41:28;;;;;;;93.97;43.92;;;;;;;0.39;97.31;98583.69;1775309;80;25569;-72
2021/11/28 03:43:57;;;;;;;91.80;44.70;;;;;;;0.39;97.35;98592.45;1775027;80;27896;-74
2021/11/28 03:46:24;;;;;;;;;;;;;;;0.39;97.23;98588.45;1745538;82;25404;-74
2021/11/28 03:48:51;;;;;;;92.22;43.00;;;;;;;0.38;97.28;98595.41;1774880;80;25718;-74
2021/11/28 03:51:17;;;;;;;94.05;46.00;;;;;;;0.37;97.21;98598.59;1742819;82;26710;-74
2021/11/28 03:53:45;;;;;;;92.17;46.53;;;;;;;0.36;97.29;98603.12;1775052;80;25718;-74
2021/11/28 03:56:11;;;;;;;92.05;44.27;;;;;;;0.35;97.16;98598.87;1742460;82;27376;-74
2021/11/28 03:58:39;;;;;;;94.35;45.58;;;;;;;0.36;97.32;98603.12;1749509;80;25511;-74
2021/11/28 04:01:10;;;;;;;98.90;46.53;;;;;;;0.35;97.25;98598.87;1813915;78;25625;-74
2021/11/28 04:03:37;;;;;;;91.92;46.98;;;;;;;0.36;97.33;98595.70;1813670;79;25920;-73
2021/11/28 04:06:05;;;;;;;89.77;43.55;;;;;;;0.38;97.39;98598.08;1813989;78;25627;-73
2021/11/28 04:08:32;;;;;;;93.97;47.03;;;;;;;0.39;97.40;98602.30;1813922;79;27322;-73
2021/11/28 04:10:59;;;;;;;94.03;46.10;;;;;;;0.39;97.44;98600.42;1813586;78;25651;-73
2021/11/28 04:13:26;;;;;;;89.55;44.70;;;;;;;0.38;97.34;98594.88;1814025;79;25537;-73
2021/11/28 04:15:53;;;;;;;95.50;44.38;;;;;;;0.39;97.32;98591.66;1813805;78;25919;-73
2021/11/28 04:18:19;;;;;;;94.65;46.35;;;;;;;0.38;97.32;98600.19;1813742;79;25553;-73
2021/11/28 04:20:48;;;;;;;97.25;45.90;;;;;;;0.39;97.46;98603.09;1813790;79;27335;-73
2021/11/28 04:23:15;;;;;;;88.05;45.03;;;;;;;0.38;97.43;98592.75;1813824;78;25657;-73
2021/11/28 04:25:42;;;;;;;97.65;44.70;;;;;;;0.41;97.55;98588.98;1813619;79;25611;-73
2021/11/28 04:28:08;;;;;;;93.70;45.17;;;;;;;0.41;97.46;98585.00;1791045;79;25802;-73
2021/11/28 04:30:36;;;;;;;86.28;44.45;;;;;;;0.40;97.43;98581.29;1813870;79;25538;-73
2021/11/28 04:33:04;;;;;;;96.87;45.78;;;;;;;0.42;97.59;98580.46;1813614;79;27250;-73
2021/11/28 04:35:30;;;;;;;98.80;47.15;;;;;;;0.44;97.74;98574.31;1791340;79;25779;-73
2021/11/28 04:37:57;;;;;;;89.25;44.98;;;;;;;0.45;97.69;98570.05;1813851;79;25646;-73
2021/11/28 04:40:24;;;;;;;85.32;44.90;;;;;;;0.44;97.56;98568.45;1813617;78;25903;-74
2021/11/28 04:42:51;;;;;;;92.15;46.80;;;;;;;0.45;97.57;98573.25;1791139;79;25659;-74
2021/11/28 04:45:17;;;;;;;92.42;47.17;;;;;;;0.46;97.70;98570.31;1813889;79;27322;-74
2021/11/28 04:47:44;;;;;;;96.42;47.60;;;;;;;0.47;97.68;98571.88;1813485;79;25690;-74
2021/11/28 04:50:13;;;;;;;94.67;46.40;;;;;;;0.49;97.69;98576.37;1813892;79;25393;-74
2021/11/28 04:52:40;;;;;;;93.07;44.55;;;;;;;0.51;97.71;98577.42;1813776;79;25902;-74
2021/11/28 04:55:10;;;;;;;92.53;43.45;;;;;;;0.51;97.64;98572.91;1812921;78;25723;-74
2021/11/28 04:57:37;;;;;;;90.83;45.85;;;;;;;0.53;97.54;98569.97;1813874;79;27309;-74
2021/11/28 05:00:15;;;;;;;90.05;46.13;;;;;;;0.52;97.38;98570.48;1805699;79;25556;-74
2021/11/28 05:02:42;;;;;;;93.75;48.00;;;;;;;0.52;97.33;98575.02;1765927;80;25433;-74
2021/11/28 05:05:09;;;;;;;89.07;43.73;;;;;;;0.50;97.17;98568.66;1767307;81;25892;-74
2021/11/28 05:07:35;;;;;;;93.95;46.13;;;;;;;0.48;96.97;98572.69;1767407;81;25614;-73
2021/11/28 05:10:04;;;;;;;97.33;45.40;;;;;;;0.46;97.06;98576.95;1767939;81;27884;-74
2021/11/28 05:12:31;;;;;;;88.52;44.58;;;;;;;0.46;97.01;98577.48;1769634;81;25365;-74
2021/11/28 05:14:57;;;;;;;82.60;42.08;;;;;;;0.45;96.99;98583.89;1769701;81;25814;-74
2021/11/28 05:17:24;;;;;;;87.60;44.27;;;;;;;0.44;96.93;98580.97;1769503;81;25614;-74
2021/11/28 05:19:51;;;;;;;85.57;44.58;;;;;;;0.41;96.89;98583.67;1769329;80;25559;-74
2021/11/28 05:22:18;;;;;;;92.35;43.45;;;;;;;0.39;96.74;98591.12;1769720;80;27353;-74
2021/11/28 05:24:47;;;;;;;93.47;42.65;;;;;;;0.37;96.74;98591.94;1769308;81;25748;-73
2021/11/28 05:27:15;;;;;;;97.00;45.05;;;;;;;0.35;96.65;98589.56;1769876;81;25586;-73
2021/11/28 05:29:41;;;;;;;90.62;44.30;;;;;;;0.32;96.56;98592.81;1769620;81;25960;-74
2021/11/28 05:32:08;;;;;;;95.85;46.23;;;;;;;0.30;96.47;98596.81;1769520;81;25586;-72
2021/11/28 05:34:35;;;;;;;86.17;44.65;;;;;;;0.29;96.59;98595.22;1748194;81;27317;-72
2021/11/28 05:37:02;;;;;;;86.95;43.13;;;;;;;0.26;96.57;98605.90;1769624;81;25610;-73
2021/11/28 05:39:29;;;;;;;88.55;44.42;;;;;;;0.25;96.53;98613.61;1763782;81;25555;-73
2021/11/28 05:42:00;;;;;;;89.13;43.63;;;;;;;0.23;96.56;98608.33;1768812;81;25942;-74
2021/11/28 05:44:27;;;;;;;90.45;43.63;;;;;;;0.21;96.55;98615.80;1769914;81;25710;-73
2021/11/28 05:46:53;;;;;;;88.30;44.27;;;;;;;0.19;96.56;98612.09;1769546;81;27307;-72
2021/11/28 05:49:20;;;;;;;90.30;44.77;;;;;;;0.15;96.42;98607.88;1769815;81;25590;-73
2021/11/28 05:51:46;;;;;;;82.22;42.70;;;;;;;0.16;96.44;98603.34;1769783;81;25566;-73
2021/11/28 05:54:13;;;;;;;84.90;42.43;;;;;;;0.16;96.68;98603.34;1769583;81;25916;-74
2021/11/28 05:56:39;;;;;;;89.05;42.20;;;;;;;0.16;96.76;98597.48;1769830;81;25727;-74
2021/11/28 05:59:06;;;;;;;83.60;41.33;;;;;;;0.15;96.71;98592.44;1769829;81;27325;-74
2021/11/28 06:01:33;;;;;;;93.33;43.35;;;;;;;0.13;96.72;98591.39;1769380;80;25843;-72
2021/11/28 06:03:59;;;;;;;100.00;47.48;;;;;;;0.15;96.65;98591.11;1744436;81;25609;-72
2021/11/28 06:06:26;;;;;;;96.17;47.40;;;;;;;0.14;96.63;98588.21;1773955;80;26482;-72
2021/11/28 06:08:53;;;;;;;93.37;45.25;;;;;;;0.14;96.73;98578.91;1807357;79;25550;-73
2021/11/28 06:11:20;;;;;;;89.28;44.95;;;;;;;0.13;96.69;98582.08;1808622;79;27927;-73
2021/11/28 06:13:46;;;;;;;95.28;43.83;;;;;;;0.12;96.71;98581.84;1811154;79;25667;-74
2021/11/28 06:16:13;;;;;;;96.82;46.25;;;;;;;0.13;96.88;98585.28;1813726;79;25640;-74
2021/11/28 06:18:39;;;;;;;88.87;44.13;;;;;;;0.14;97.02;98574.92;1791257;79;26033;-74
2021/11/28 06:21:06;;;;;;;95.55;46.05;;;;;;;0.15;96.99;98575.97;1813999;79;25671;-74
2021/11/28 06:23:32;;;;;;;100.18;46.53;;;;;;;0.14;96.83;98571.71;1813724;79;27372;-74
2021/11/28 06:25:59;;;;;;;92.22;43.87;;;;;;;0.14;96.72;98577.58;1813897;79;25621;-74
2021/11/28 06:28:25;;;;;;;88.10;45.65;;;;;;;0.13;96.64;98581.30;1815156;79;25602;-74
2021/11/28 06:30:52;;;;;;;90.07;43.38;;;;;;;0.12;96.71;98587.16;1816574;79;25876;-73
2021/11/28 06:33:20;;;;;;;83.97;41.40;;;;;;;0.11;96.68;98582.91;1777762;80;25242;-73
2021/11/28 06:35:47;;;;;;;80.25;42.17;;;;;;;0.13;96.76;98591.93;1777347;80;27317;-73
2021/11/28 06:38:13;;;;;;;89.90;42.70;;;;;;;0.10;96.63;98595.96;1777593;80;25199;-73
2021/11/28 06:40:40;;;;;;;86.45;44.08;;;;;;;0.08;96.43;98598.63;1777563;80;25226;-73
2021/11/28 06:43:07;;;;;;;91.53;44.00;;;;;;;0.06;96.30;98600.78;1744433;82;25999;-73
2021/11/28 06:45:34;;;;;;;89.37;44.85;;;;;;;0.05;96.48;98613.29;1747794;80;25627;-73
2021/11/28 06:48:01;;;;;;;93.22;46.77;;;;;;;0.04;96.35;98608.25;1742637;82;27925;-73
2021/11/28 06:50:28;;;;;;;89.40;43.65;;;;;;;0.00;96.19;98609.35;1774904;80;25593;-73
2021/11/28 06:52:59;;;;;;;92.67;43.20;;;;;;;0.02;96.26;98613.03;1742303;82;25629;-72
2021/11/28 06:55:26;;;;;;;85.95;43.38;;;;;;;-0.01;96.28;98611.20;1774985;80;26455;-72
2021/11/28 06:57:53;;;;;;;86.97;44.85;;;;;;;0.01;96.36;98625.54;1742675;82;25622;-73
2021/11/28 07:00:20;;;;;;;92.42;42.75;;;;;;;0.01;96.36;98620.77;1774705;80;27312;-73
2021/11/28 07:02:46;;;;;;;106.92;52.10;;;;;;;0.02;96.48;98621.01;1742509;82;25727;-73
2021/11/28 07:05:13;;;;;;;106.40;52.98;;;;;;;0.03;96.56;98625.27;1775034;80;25609;-73
2021/11/28 07:07:39;;;;;;;99.70;51.23;;;;;;;0.04;96.61;98638.28;1742359;82;25918;-73
2021/11/28 07:10:07;;;;;;;95.00;47.55;;;;;;;0.05;96.70;98637.73;1775009;80;25620;-73
2021/11/28 07:12:34;;;;;;;95.90;47.83;;;;;;;0.08;96.78;98641.17;1771469;80;28048;-74
2021/11/28 07:15:01;;;;;;;97.33;50.78;;;;;;;0.08;96.81;98629.98;1774602;80;25792;-75
2021/11/28 07:17:27;;;;;;;103.50;51.20;;;;;;;0.11;96.80;98633.97;1774985;80;25674;-75
2021/11/28 07:19:54;;;;;;;107.87;56.13;;;;;;;0.13;96.75;98631.81;1742581;82;25890;-75
2021/11/28 07:22:21;;;;;;;110.05;53.90;;;;;;;0.15;96.83;98630.99;1774726;80;25413;-73
2021/11/28 07:24:48;;;;;;;107.85;51.35;;;;;;;0.19;97.18;98628.05;1742552;82;27306;-73
2021/11/28 07:27:15;;;;;;;116.40;56.30;;;;;;;0.23;97.35;98630.39;1774954;80;25453;-73
2021/11/28 07:29:42;;;;;;;114.17;52.60;;;;;;;0.25;97.38;98625.58;1721087;82;25646;-73
2021/11/28 07:32:08;;;;;;;108.35;51.68;;;;;;;0.30;97.50;98622.08;1774979;80;25921;-73
2021/11/28 07:34:35;;;;;;;113.65;52.27;;;;;;;0.35;97.67;98619.37;1742670;82;25473;-72
2021/11/28 07:37:01;;;;;;;102.72;50.43;;;;;;;0.39;97.88;98619.05;1774680;80;27892;-73
2021/11/28 07:39:28;;;;;;;106.40;51.08;;;;;;;0.45;97.98;98613.16;1742549;82;25624;-73
2021/11/28 07:41:54;;;;;;;101.90;51.08;;;;;;;0.50;98.12;98611.22;1774884;80;25600;-74
2021/11/28 07:44:21;;;;;;;113.70;56.18;;;;;;;0.53;97.99;98610.66;1742206;82;26723;-73
2021/11/28 07:46:48;;;;;;;113.12;54.42;;;;;;;0.59;97.99;98609.27;1774870;80;25375;-73
2021/11/28 07:49:15;;;;;;;111.37;53.68;;;;;;;0.63;98.14;98606.28;1742687;82;27301;-72
2021/11/28 07:51:41;;;;;;;116.20;53.78;;;;;;;0.67;98.06;98615.30;1774566;80;25514;-73
2021/11/28 07:54:08;;;;;;;110.48;53.90;;;;;;;0.72;98.31;98614.69;1742666;82;25641;-74
2021/11/28 07:56:35;;;;;;;108.67;51.55;;;;;;;0.78;98.38;98613.30;1774970;80;25895;-73
2021/11/28 07:59:02;;;;;;;110.48;51.58;;;;;;;0.85;98.49;98618.55;1774703;80;25645;-73
2021/11/28 08:01:29;;;;;;;108.80;54.90;;;;;;;0.92;98.92;98613.66;1775046;80;27291;-74
2021/11/28 08:03:55;;;;;;;114.77;57.70;;;;;;;1.00;99.20;98602.89;1774798;80;25580;-74
2021/11/28 08:06:22;;;;;;;122.25;60.15;;;;;;;1.07;99.20;98599.88;1723939;82;26219;-74
2021/11/28 08:08:48;;;;;;;114.67;57.90;;;;;;;1.14;99.15;98607.51;1759876;81;25914;-74
2021/11/28 08:11:17;;;;;;;119.60;57.23;;;;;;;1.20;99.16;98610.36;1755287;81;25528;-74
2021/11/28 08:13:44;;;;;;;111.65;53.65;;;;;;;1.25;99.03;98619.06;1761237;81;27038;-74
2021/11/28 08:16:11;;;;;;;108.70;52.95;;;;;;;1.33;99.43;98614.98;1763108;81;25594;-73
2021/11/28 08:18:39;;;;;;;130.07;63.95;;;;;;;1.42;99.16;98615.11;1756663;80;25672;-73
2021/11/28 08:21:07;;;;;;;122.60;58.80;;;;;;;1.54;99.97;98606.13;1743137;80;25937;-73
2021/11/28 08:23:33;;;;;;;109.15;53.63;;;;;;;1.66;100.00;98601.69;1774920;80;25557;-74
2021/11/28 08:26:00;;;;;;;109.10;54.55;;;;;;;1.75;99.93;98609.80;1774932;80;27329;-74
2021/11/28 08:28:27;;;;;;;111.00;53.68;;;;;;;1.85;100.00;98607.75;1767903;80;25515;-74
2021/11/28 08:30:54;;;;;;;106.95;53.48;;;;;;;1.96;100.00;98614.25;1770953;80;25668;-75
2021/11/28 08:33:21;;;;;;;108.72;54.63;;;;;;;2.06;100.00;98607.44;1771135;81;26022;-75
2021/11/28 08:35:47;;;;;;;108.55;53.00;;;;;;;2.17;100.00;98608.81;1747061;80;25647;-75
2021/11/28 08:38:14;;;;;;;108.03;54.18;;;;;;;2.26;100.00;98612.92;1801648;79;27298;-74
2021/11/28 08:40:41;;;;;;;95.22;49.40;;;;;;;2.33;100.00;98613.87;1800662;79;25685;-75
2021/11/28 08:43:09;;;;;;;90.65;47.98;;;;;;;2.41;100.00;98621.20;1800699;79;26302;-75
2021/11/28 08:45:37;;;;;;;94.42;48.95;;;;;;;2.48;99.53;98623.48;1803547;79;26325;-75
2021/11/28 08:48:06;;;;;;;89.50;44.55;;;;;;;2.57;99.75;98624.36;1806291;79;25703;-75
2021/11/28 08:50:33;;;;;;;94.13;48.92;;;;;;;2.68;99.89;98624.42;1804119;79;27323;-74
2021/11/28 08:53:00;;;;;;;103.50;52.45;;;;;;;2.73;99.23;98623.54;1782441;78;25740;-75
2021/11/28 08:55:27;;;;;;;103.02;55.17;;;;;;;2.85;99.70;98615.81;1756784;80;25700;-75
2021/11/28 08:57:53;;;;;;;113.72;56.80;;;;;;;3.08;100.00;98621.20;1764066;80;25933;-76
2021/11/28 09:00:20;;;;;;;105.15;56.13;;;;;;;3.29;100.00;98624.25;1742715;80;25569;-75
2021/11/28 09:02:49;;;;;;;112.97;58.15;;;;;;;3.49;100.00;98628.33;1735257;82;27410;-75
2021/11/28 09:05:19;;;;;;;108.57;58.50;;;;;;;3.60;100.00;98616.31;1775147;79;29636;-75
2021/11/28 09:07:46;;;;;;;;;;;;;;;3.72;100.00;98615.77;1798136;78;25846;-75
2021/11/28 09:10:14;;;;;;;111.57;58.60;;;;;;;3.78;98.86;98622.59;1795396;79;26093;-75
2021/11/28 09:12:42;;;;;;;111.92;59.18;;;;;;;3.87;99.01;98623.42;1795387;79;25379;-74
2021/11/28 09:15:10;;;;;;;121.45;62.58;;;;;;;4.00;99.34;98619.11;1795228;79;28441;-75
2021/11/28 09:17:42;;;;;;;113.60;60.73;;;;;;;4.18;99.98;98616.52;1772164;80;25718;-74
2021/11/28 09:20:09;;;;;;;121.30;64.22;;;;;;;4.48;100.00;98619.73;1788981;78;25981;-75
2021/11/28 09:25:06;;;;;;;114.32;60.00;;;;;;;4.81;100.00;98615.89;1780250;80;25613;-76
2021/11/28 09:27:32;;;;;;;114.08;62.48;;;;;;;4.96;100.00;98616.02;1778431;80;27381;-76
2021/11/28 09:30:01;;;;;;;118.93;62.78;;;;;;;5.13;100.00;98612.58;1728489;81;25704;-75
2021/11/28 09:32:28;;;;;;;133.67;72.22;;;;;;;5.48;100.00;98614.70;1742392;82;25748;-75
2021/11/28 09:34:54;;;;;;;134.37;71.25;;;;;;;6.04;100.00;98614.05;1748274;80;26478;-75
2021/11/28 09:37:21;;;;;;;131.03;72.40;;;;;;;6.82;100.00;98607.59;1752018;81;25509;-75
2021/11/28 09:39:47;;;;;;;125.85;70.65;;;;;;;7.60;100.00;98599.53;1741943;80;27884;-75
2021/11/28 09:42:31;;;;;;;101.33;57.10;;;;;;;8.40;100.00;98603.78;1811231;79;25713;-75
2021/11/28 09:45:00;;;;;;;95.65;56.08;;;;;;;8.89;100.00;98605.73;1754218;81;25771;-76
2021/11/28 09:47:30;;;;;;;101.23;54.87;;;;;;;9.14;96.47;98600.53;1758699;81;25942;-76
2021/11/28 09:49:57;;;;;;;90.25;52.60;;;;;;;9.57;95.81;98597.46;1798207;78;25714;-76
2021/11/28 09:52:26;;;;;;;85.87;51.80;;;;;;;10.10;94.45;98583.27;1750508;82;27409;-74
2021/11/28 09:55:00;;;;;;;89.97;53.95;;;;;;;10.71;93.70;98592.09;1757921;81;33544;-76
2021/11/28 09:57:28;;;;;;;87.02;51.40;;;;;;;11.17;91.48;98579.60;1803025;79;25641;-77
2021/11/28 09:59:58;;;;;;;82.12;49.42;;;;;;;11.83;90.98;98582.43;1746692;81;26629;-77
2021/11/28 10:02:31;;;;;;;76.45;47.43;;;;;;;13.14;87.01;98582.80;1744246;81;25618;-77
2021/11/28 10:05:03;;;;;;;78.87;47.75;;;;;;;13.14;87.01;98582.80;1737320;81;27198;-76
2021/11/28 10:07:30;;;;;;;76.80;47.03;;;;;;;13.86;85.32;98580.98;1724165;83;25604;-77
2021/11/28 10:09:57;;;;;;;67.80;43.92;;;;;;;14.34;81.71;98582.98;1770770;80;25558;-77
2021/11/28 10:12:35;;;;;;;73.83;43.95;;;;;;;14.84;80.26;98582.01;1689508;83;26326;-76
2021/11/28 10:15:06;;;;;;;67.35;44.30;;;;;;;15.26;77.30;98582.65;1729900;82;25727;-77
2021/11/28 10:17:36;;;;;;;61.83;40.12;;;;;;;15.64;75.80;98573.05;1679270;83;27461;-77
2021/11/28 10:20:10;;;;;;;57.35;38.53;;;;;;;15.88;72.86;98569.45;1762452;80;25706;-77
2021/11/28 10:22:38;;;;;;;55.33;37.30;;;;;;;15.71;70.65;98560.63;1735197;81;25679;-75
2021/11/28 10:25:25;;;;;;;41.77;28.17;;;;;;;15.40;68.58;98569.67;1736799;81;25925;-77
2021/11/28 10:27:56;;;;;;;41.98;29.18;;;;;;;14.94;66.78;98563.59;1686299;83;25740;-76
2021/11/28 10:30:35;;;;;;;41.95;26.48;;;;;;;14.23;65.59;98569.86;1688990;84;27333;-76
2021/11/28 10:33:14;;;;;;;39.75;25.10;;;;;;;13.61;64.32;98569.83;1715919;83;26279;-77
2021/11/28 10:36:03;;;;;;;37.30;26.42;;;;;;;12.91;64.64;98566.60;1684509;83;26306;-76
2021/11/28 10:38:36;;;;;;;37.53;26.67;;;;;;;12.36;64.85;98568.86;1728152;82;26685;-75
2021/11/28 10:41:23;;;;;;;39.20;26.55;;;;;;;11.90;65.67;98564.17;1741005;81;25733;-76
2021/11/28 10:43:50;;;;;;;41.20;27.27;;;;;;;11.65;66.68;98567.80;1764098;81;27376;-75
2021/11/28 10:46:30;;;;;;;42.58;27.80;;;;;;;11.60;67.78;98564.80;1716761;83;25577;-75
2021/11/28 10:49:10;;;;;;;47.38;30.02;;;;;;;11.58;68.00;98565.15;1752546;80;25723;-74
2021/11/28 10:51:41;;;;;;;50.20;30.92;;;;;;;11.40;67.63;98553.95;1738787;82;25940;-74
2021/11/28 10:54:34;;;;;;;51.60;30.00;;;;;;;11.17;67.39;98557.18;1688761;83;25707;-72
2021/11/28 10:57:14;;;;;;;39.23;23.98;;;;;;;10.86;67.04;98560.75;1657997;85;27325;-74
2021/11/28 10:59:45;;;;;;;42.43;27.40;;;;;;;10.50;66.91;98566.69;1638910;86;25707;-74
2021/11/28 11:02:34;;;;;;;43.58;24.52;;;;;;;10.15;66.95;98561.40;1677249;82;25528;-75
2021/11/28 11:05:07;;;;;;;40.25;24.65;;;;;;;9.86;66.92;98557.20;1757883;80;27999;-74
2021/11/28 11:07:54;;;;;;;42.88;23.87;;;;;;;9.56;67.18;98559.47;1720726;82;25487;-76
2021/11/28 11:10:25;;;;;;;44.27;25.27;;;;;;;9.32;67.85;98550.34;1722947;82;27440;-76
2021/11/28 11:12:53;;;;;;;45.98;26.68;;;;;;;9.08;67.90;98547.16;1756490;81;25563;-74
2021/11/28 11:15:44;;;;;;;48.30;27.25;;;;;;;8.95;68.90;98538.30;1764050;80;25637;-75
2021/11/28 11:18:15;;;;;;;51.40;29.67;;;;;;;8.87;69.35;98545.41;1746713;82;25928;-76
2021/11/28 11:20:46;;;;;;;50.83;28.65;;;;;;;8.78;69.57;98531.25;1723481;80;25788;-75
2021/11/28 11:23:41;;;;;;;51.63;32.28;;;;;;;8.69;68.94;98531.38;1799396;79;27420;-77
2021/11/28 11:26:15;;;;;;;57.85;33.45;;;;;;;8.57;69.23;98524.09;1804643;79;25520;-77
2021/11/28 11:29:11;;;;;;;59.03;34.20;;;;;;;8.39;69.23;98523.52;1801192;77;25805;-78
2021/11/28 11:31:42;;;;;;;53.63;33.50;;;;;;;8.25;69.55;98523.06;1833616;78;25913;-80
2021/11/28 11:34:28;;;;;;;58.68;34.73;;;;;;;8.11;69.38;98522.61;1832322;78;25570;-77
2021/11/28 11:37:00;;;;;;;62.65;34.95;;;;;;;7.96;69.62;98512.70;1793814;78;27257;-78